createdAt,value
2023-05-06T00:00:13.987Z,93.68
2023-05-06T00:02:43.791Z,93.56
2023-05-06T00:05:11.095Z,93.37
2023-05-06T00:07:39.243Z,93.27
2023-05-06T00:10:06.262Z,93.33
2023-05-06T00:12:33.246Z,93.29
2023-05-06T00:15:00.149Z,93.40
2023-05-06T00:17:26.965Z,93.32
2023-05-06T00:19:55.796Z,93.31
2023-05-06T00:22:22.836Z,93.26
2023-05-06T00:24:49.733Z,93.21
2023-05-06T00:27:16.570Z,93.00
2023-05-06T00:29:43.439Z,92.87
2023-05-06T00:32:10.606Z,92.69
2023-05-06T00:34:37.514Z,92.67
2023-05-06T00:37:04.204Z,92.85
2023-05-06T00:39:31.032Z,92.73
2023-05-06T00:42:01.699Z,92.81
2023-05-06T00:44:29.437Z,92.55
2023-05-06T00:46:57.236Z,92.41
2023-05-06T00:49:24.107Z,92.39
2023-05-06T00:51:51.798Z,92.17
2023-05-06T00:54:18.663Z,92.04
2023-05-06T00:56:45.519Z,92.15
2023-05-06T00:59:12.590Z,92.41
2023-05-06T01:01:40.105Z,92.51
2023-05-06T01:04:08.308Z,92.72
2023-05-06T01:06:44.374Z,92.78
2023-05-06T01:09:19.458Z,92.77
2023-05-06T01:11:57.351Z,92.82
2023-05-06T01:14:49.443Z,92.92
2023-05-06T01:17:18.113Z,92.99
2023-05-06T01:19:52.901Z,92.95
2023-05-06T01:22:19.746Z,93.23
2023-05-06T01:24:46.619Z,93.35
2023-05-06T01:27:16.264Z,93.37
2023-05-06T01:29:44.881Z,93.30
2023-05-06T01:32:17.996Z,93.51
2023-05-06T01:35:23.667Z,93.37
2023-05-06T01:38:13.518Z,93.45
2023-05-06T01:40:40.962Z,93.44
2023-05-06T01:43:07.743Z,93.25
2023-05-06T01:45:35.315Z,93.22
2023-05-06T01:48:03.880Z,92.93
2023-05-06T01:50:30.717Z,92.92
2023-05-06T01:53:01.548Z,92.66
2023-05-06T01:55:28.916Z,92.33
2023-05-06T01:57:58.332Z,92.38
2023-05-06T02:00:25.888Z,92.10
2023-05-06T02:02:53.047Z,91.66
2023-05-06T02:05:20.158Z,91.62
2023-05-06T02:07:47.855Z,91.34
2023-05-06T02:10:14.817Z,91.22
2023-05-06T02:12:46.349Z,91.24
2023-05-06T02:15:13.296Z,91.47
2023-05-06T02:17:40.273Z,91.25
2023-05-06T02:20:09.542Z,91.13
2023-05-06T02:22:36.661Z,91.03
2023-05-06T02:25:03.910Z,90.81
2023-05-06T02:27:30.967Z,90.62
2023-05-06T02:29:57.799Z,90.51
2023-05-06T02:32:24.772Z,90.21
2023-05-06T02:34:54.144Z,90.31
2023-05-06T02:40:16.090Z,90.62
2023-05-06T02:42:43.641Z,90.92
2023-05-06T02:45:12.946Z,90.86
2023-05-06T02:47:40.497Z,90.77
2023-05-06T02:50:07.551Z,90.32
2023-05-06T02:52:35.941Z,90.15
2023-05-06T02:55:02.814Z,90.30
2023-05-06T02:57:30.855Z,90.19
2023-05-06T02:59:57.876Z,90.19
2023-05-06T03:02:24.796Z,90.26
2023-05-06T03:04:51.791Z,90.10
2023-05-06T03:07:19.352Z,89.80
2023-05-06T03:09:46.344Z,89.56
2023-05-06T03:12:13.597Z,89.41
2023-05-06T03:14:40.395Z,89.53
2023-05-06T03:17:07.142Z,89.49
2023-05-06T03:19:36.024Z,89.32
2023-05-06T03:22:03.183Z,89.35
2023-05-06T03:24:31.124Z,89.30
2023-05-06T03:26:58.677Z,89.09
2023-05-06T03:29:25.652Z,89.22
2023-05-06T03:31:56.803Z,88.98
2023-05-06T03:34:24.174Z,88.65
2023-05-06T03:36:51.136Z,88.37
2023-05-06T03:39:18.422Z,88.29
2023-05-06T03:41:45.584Z,87.79
2023-05-06T03:44:12.419Z,87.61
2023-05-06T03:46:41.237Z,87.14
2023-05-06T03:49:08.396Z,87.13
2023-05-06T03:51:35.619Z,86.65
2023-05-06T03:54:03.097Z,86.97
2023-05-06T03:56:30.947Z,86.87
2023-05-06T03:58:58.569Z,86.92
2023-05-06T04:01:26.116Z,86.71
2023-05-06T04:03:54.156Z,86.70
2023-05-06T04:06:21.512Z,86.53
2023-05-06T04:08:51.063Z,86.52
2023-05-06T04:11:18.281Z,86.34
2023-05-06T04:13:46.419Z,86.37
2023-05-06T04:16:15.557Z,86.75
2023-05-06T04:18:45.646Z,86.57
2023-05-06T04:21:14.899Z,85.67
2023-05-06T04:23:43.936Z,84.63
2023-05-06T04:26:12.932Z,84.17
2023-05-06T04:28:41.253Z,83.08
2023-05-06T04:31:08.618Z,81.66
2023-05-06T04:33:42.742Z,80.22
2023-05-06T04:36:12.723Z,78.57
2023-05-06T04:38:42.901Z,77.61
2023-05-06T04:41:10.734Z,77.00
2023-05-06T04:43:37.815Z,76.58
2023-05-06T04:46:10.171Z,75.71
2023-05-06T04:48:38.370Z,75.65
2023-05-06T04:51:05.812Z,75.08
2023-05-06T04:53:33.136Z,74.33
2023-05-06T04:56:00.357Z,73.84
2023-05-06T04:58:27.536Z,73.39
2023-05-06T05:00:56.823Z,72.85
2023-05-06T05:03:24.752Z,69.89
2023-05-06T05:05:53.066Z,65.94
2023-05-06T05:08:20.903Z,63.86
2023-05-06T05:10:48.771Z,57.78
2023-05-06T05:13:19.060Z,52.94
2023-05-06T05:15:46.510Z,49.76
2023-05-06T05:18:14.215Z,48.09
2023-05-06T05:20:41.564Z,47.36
2023-05-06T05:23:09.075Z,44.74
2023-05-06T05:25:37.670Z,43.31
2023-05-06T05:28:04.527Z,42.37
2023-05-06T05:30:32.061Z,41.95
2023-05-06T05:32:59.252Z,41.11
2023-05-06T05:35:27.009Z,40.24
2023-05-06T05:37:54.864Z,39.40
2023-05-06T05:40:22.050Z,38.97
2023-05-06T05:42:51.713Z,38.80
2023-05-06T05:45:24.105Z,38.78
2023-05-06T05:47:51.028Z,37.33
2023-05-06T05:50:18.172Z,36.76
2023-05-06T05:52:45.587Z,35.23
2023-05-06T05:55:12.857Z,34.53
2023-05-06T05:57:41.632Z,34.56
2023-05-06T06:00:10.159Z,33.99
2023-05-06T06:02:44.314Z,34.51
2023-05-06T06:05:12.147Z,35.38
2023-05-06T06:07:39.441Z,35.72
2023-05-06T06:10:06.901Z,35.05
2023-05-06T06:12:34.423Z,33.66
2023-05-06T06:15:01.861Z,33.21
2023-05-06T06:17:30.779Z,33.43
2023-05-06T06:19:58.620Z,33.80
2023-05-06T06:22:25.960Z,33.15
2023-05-06T06:24:54.257Z,32.10
2023-05-06T06:27:21.242Z,30.83
2023-05-06T06:29:49.315Z,30.51
2023-05-06T06:32:16.348Z,29.94
2023-05-06T06:34:43.223Z,29.66
2023-05-06T06:37:11.669Z,29.59
2023-05-06T06:39:38.945Z,29.10
2023-05-06T06:42:08.896Z,29.34
2023-05-06T06:44:38.865Z,28.94
2023-05-06T06:47:05.864Z,28.47
2023-05-06T06:49:33.010Z,28.47
2023-05-06T06:51:59.885Z,27.91
2023-05-06T06:54:26.813Z,27.43
2023-05-06T06:56:55.731Z,26.89
2023-05-06T06:59:22.865Z,26.41
2023-05-06T07:01:50.465Z,25.75
2023-05-06T07:04:17.401Z,24.63
2023-05-06T07:06:44.221Z,25.26
2023-05-06T07:09:11.805Z,25.29
2023-05-06T07:11:38.768Z,25.73
2023-05-06T07:14:05.511Z,25.80
2023-05-06T07:16:33.316Z,25.40
2023-05-06T07:19:00.934Z,25.64
2023-05-06T07:21:27.777Z,25.58
2023-05-06T07:23:54.613Z,25.20
2023-05-06T07:26:21.536Z,25.14
2023-05-06T07:28:49.579Z,24.74
2023-05-06T07:31:20.292Z,25.25
2023-05-06T07:33:47.552Z,24.37
2023-05-06T07:36:14.380Z,24.39
2023-05-06T07:38:41.642Z,24.75
2023-05-06T07:41:08.411Z,23.81
2023-05-06T07:43:35.751Z,23.74
2023-05-06T07:46:03.065Z,24.08
2023-05-06T07:48:30.185Z,23.86
2023-05-06T07:50:57.225Z,24.26
2023-05-06T07:53:24.126Z,24.46
2023-05-06T07:55:52.075Z,24.20
2023-05-06T07:58:19.449Z,24.53
2023-05-06T08:00:47.060Z,24.72
2023-05-06T08:03:14.194Z,24.85
2023-05-06T08:05:41.289Z,25.09
2023-05-06T08:08:08.200Z,24.35
2023-05-06T08:10:35.174Z,24.32
2023-05-06T08:13:02.751Z,24.44
2023-05-06T08:15:29.729Z,23.92
2023-05-06T08:17:58.769Z,23.63
2023-05-06T08:20:27.242Z,23.72
2023-05-06T08:22:54.686Z,23.75
2023-05-06T08:25:21.490Z,24.25
2023-05-06T08:27:48.326Z,23.73
2023-05-06T08:30:15.372Z,23.59
2023-05-06T08:32:42.879Z,23.58
2023-05-06T08:35:09.864Z,23.54
2023-05-06T08:37:37.008Z,23.00
2023-05-06T08:40:04.815Z,23.18
2023-05-06T08:42:31.994Z,22.97
2023-05-06T08:44:59.332Z,23.04
2023-05-06T08:47:26.187Z,23.29
2023-05-06T08:49:53.132Z,23.53
2023-05-06T08:52:21.764Z,23.37
2023-05-06T08:54:50.859Z,22.98
2023-05-06T08:57:19.721Z,22.64
2023-05-06T08:59:46.651Z,21.91
2023-05-06T09:02:13.536Z,22.20
2023-05-06T09:04:40.348Z,22.83
2023-05-06T09:07:07.287Z,22.66
2023-05-06T09:09:34.109Z,22.98
2023-05-06T09:12:01.274Z,22.49
2023-05-06T09:14:28.459Z,22.06
2023-05-06T09:16:55.321Z,22.88
2023-05-06T09:19:24.096Z,23.02
2023-05-06T09:21:50.951Z,22.70
2023-05-06T09:24:17.833Z,22.40
2023-05-06T09:26:45.273Z,22.95
2023-05-06T09:29:12.369Z,22.74
2023-05-06T09:31:40.978Z,21.81
2023-05-06T09:34:08.176Z,21.54
2023-05-06T09:36:36.627Z,21.86
2023-05-06T09:39:04.203Z,21.54
2023-05-06T09:41:31.759Z,21.40
2023-05-06T09:43:58.851Z,21.58
2023-05-06T09:46:29.620Z,21.42
2023-05-06T09:48:57.661Z,22.04
2023-05-06T09:51:25.700Z,22.29
2023-05-06T09:53:52.561Z,21.99
2023-05-06T09:56:19.508Z,22.74
2023-05-06T09:58:47.071Z,23.05
2023-05-06T10:01:22.213Z,23.44
2023-05-06T10:03:57.336Z,23.68
2023-05-06T10:06:24.377Z,23.66
2023-05-06T10:08:52.169Z,23.47
2023-05-06T10:11:19.795Z,23.17
2023-05-06T10:13:47.149Z,23.79
2023-05-06T10:16:15.838Z,23.56
2023-05-06T10:18:43.191Z,23.53
2023-05-06T10:21:16.766Z,23.24
2023-05-06T10:23:48.750Z,23.93
2023-05-06T10:26:16.572Z,23.63
2023-05-06T10:28:43.629Z,23.73
2023-05-06T10:31:12.584Z,24.68
2023-05-06T10:33:45.563Z,25.77
2023-05-06T10:36:20.901Z,24.81
2023-05-06T10:38:56.030Z,25.06
2023-05-06T10:41:23.721Z,24.73
2023-05-06T10:43:56.541Z,24.54
2023-05-06T10:46:25.715Z,24.61
2023-05-06T10:49:11.620Z,25.09
2023-05-06T10:51:46.796Z,23.30
2023-05-06T10:54:19.814Z,23.56
2023-05-06T10:56:50.200Z,24.03
2023-05-06T10:59:21.539Z,24.09
2023-05-06T11:01:57.047Z,24.28
2023-05-06T11:04:24.347Z,23.57
2023-05-06T11:06:52.524Z,23.86
2023-05-06T11:09:23.176Z,24.24
2023-05-06T11:12:01.704Z,23.96
2023-05-06T11:14:35.236Z,24.16
2023-05-06T11:17:06.713Z,24.57
2023-05-06T11:19:37.752Z,23.90
2023-05-06T11:22:05.755Z,23.75
2023-05-06T11:24:41.885Z,23.08
2023-05-06T11:27:09.230Z,23.69
2023-05-06T11:29:36.794Z,24.34
2023-05-06T11:32:05.468Z,25.23
2023-05-06T11:34:32.442Z,25.77
2023-05-06T11:37:04.819Z,26.92
2023-05-06T11:39:36.646Z,27.80
2023-05-06T11:42:08.115Z,28.38
2023-05-06T11:44:38.757Z,28.83
2023-05-06T11:47:07.604Z,28.48
2023-05-06T11:49:44.348Z,28.34
2023-05-06T11:52:12.007Z,28.66
2023-05-06T11:54:39.693Z,28.71
2023-05-06T11:57:07.135Z,29.04
2023-05-06T11:59:38.146Z,29.40
2023-05-06T12:02:06.609Z,29.94
2023-05-06T12:04:44.650Z,30.49
2023-05-06T12:07:13.356Z,31.02
2023-05-06T12:09:42.305Z,31.25
2023-05-06T12:12:09.804Z,32.13
2023-05-06T12:14:37.052Z,32.37
2023-05-06T12:17:04.073Z,32.22
2023-05-06T12:19:31.694Z,32.59
2023-05-06T12:22:15.694Z,31.78
2023-05-06T12:24:42.905Z,31.34
2023-05-06T12:27:10.160Z,31.49
2023-05-06T12:29:37.305Z,31.85
2023-05-06T12:32:08.773Z,32.24
2023-05-06T12:34:39.998Z,32.27
2023-05-06T12:37:08.172Z,32.05
2023-05-06T12:39:36.305Z,31.34
2023-05-06T12:42:03.680Z,30.94
2023-05-06T12:44:32.204Z,31.20
2023-05-06T12:47:03.535Z,31.29
2023-05-06T12:49:50.469Z,31.91
2023-05-06T12:52:18.692Z,32.21
2023-05-06T12:54:45.929Z,32.93
2023-05-06T12:57:12.703Z,31.79
2023-05-06T12:59:39.594Z,31.47
2023-05-06T13:02:06.630Z,31.70
2023-05-06T13:04:34.802Z,31.28
2023-05-06T13:07:01.741Z,31.86
2023-05-06T13:09:28.964Z,32.12
2023-05-06T13:11:55.886Z,32.92
2023-05-06T13:14:22.713Z,31.80
2023-05-06T13:16:50.559Z,32.23
2023-05-06T13:19:31.777Z,32.07
2023-05-06T13:22:00.616Z,32.11
2023-05-06T13:24:28.713Z,32.49
2023-05-06T13:27:01.681Z,32.81
2023-05-06T13:29:29.095Z,33.62
2023-05-06T13:31:55.945Z,33.46
2023-05-06T13:34:22.916Z,33.69
2023-05-06T13:36:50.219Z,33.81
2023-05-06T13:39:17.060Z,34.30
2023-05-06T13:41:47.823Z,33.78
2023-05-06T13:44:15.288Z,34.20
2023-05-06T13:46:44.775Z,33.32
2023-05-06T13:49:16.153Z,33.11
2023-05-06T13:51:43.085Z,33.11
2023-05-06T13:54:09.850Z,33.20
2023-05-06T13:56:36.826Z,33.41
2023-05-06T13:59:03.710Z,33.49
2023-05-06T14:01:30.654Z,33.62
2023-05-06T14:03:57.648Z,33.89
2023-05-06T14:06:24.657Z,33.82
2023-05-06T14:08:51.738Z,33.59
2023-05-06T14:11:18.508Z,33.54
2023-05-06T14:13:45.392Z,33.76
2023-05-06T14:16:12.188Z,34.17
2023-05-06T14:18:39.069Z,34.49
2023-05-06T14:21:06.049Z,35.09
2023-05-06T14:23:33.094Z,34.61
2023-05-06T14:26:00.190Z,35.05
2023-05-06T14:28:27.392Z,35.06
2023-05-06T14:30:54.177Z,35.00
2023-05-06T14:33:22.941Z,35.09
2023-05-06T14:35:52.449Z,34.93
2023-05-06T14:38:19.505Z,34.58
2023-05-06T14:40:46.383Z,34.64
2023-05-06T14:43:13.336Z,35.25
2023-05-06T14:45:40.306Z,35.30
2023-05-06T14:48:07.241Z,34.84
2023-05-06T14:50:34.162Z,34.33
2023-05-06T14:53:02.977Z,34.53
2023-05-06T14:57:04.387Z,34.89
2023-05-06T14:59:31.472Z,34.87
2023-05-06T15:01:58.570Z,35.18
2023-05-06T15:04:26.956Z,35.18
2023-05-06T15:06:57.174Z,35.36
2023-05-06T15:09:25.769Z,35.68
2023-05-06T15:11:52.589Z,35.84
2023-05-06T15:14:20.698Z,36.23
2023-05-06T15:16:47.566Z,36.24
2023-05-06T15:19:14.384Z,35.89
2023-05-06T15:21:41.337Z,35.84
2023-05-06T15:24:08.729Z,35.61
2023-05-06T15:26:36.620Z,35.74
2023-05-06T15:29:06.257Z,35.87
2023-05-06T15:31:38.341Z,36.52
2023-05-06T15:34:08.848Z,36.37
2023-05-06T15:36:36.778Z,36.23
2023-05-06T15:39:03.842Z,36.95
2023-05-06T15:41:32.057Z,36.62
2023-05-06T15:43:59.919Z,36.70
2023-05-06T15:46:27.719Z,36.73
2023-05-06T15:49:17.466Z,37.06
2023-05-06T15:51:42.174Z,37.33
2023-05-06T15:54:10.019Z,37.51
2023-05-06T15:56:40.988Z,37.24
2023-05-06T15:59:08.798Z,37.45
2023-05-06T16:02:18.760Z,37.85
2023-05-06T16:04:23.605Z,38.07
2023-05-06T16:06:50.839Z,38.31
2023-05-06T16:09:17.984Z,38.61
2023-05-06T16:11:45.170Z,38.78
2023-05-06T16:14:12.558Z,38.92
2023-05-06T16:16:39.579Z,39.23
2023-05-06T16:19:06.852Z,39.40
2023-05-06T16:21:35.153Z,39.88
2023-05-06T16:24:01.956Z,40.23
2023-05-06T16:26:29.058Z,40.78
2023-05-06T16:28:55.854Z,41.10
2023-05-06T16:31:22.721Z,42.05
2023-05-06T16:33:50.367Z,43.02
2023-05-06T16:36:17.294Z,43.69
2023-05-06T16:38:44.116Z,44.20
2023-05-06T16:41:21.400Z,44.92
2023-05-06T16:43:48.379Z,44.99
2023-05-06T16:46:15.491Z,45.46
2023-05-06T16:48:42.830Z,45.55
2023-05-06T16:51:11.966Z,45.90
2023-05-06T16:53:38.847Z,46.08
2023-05-06T16:56:06.573Z,46.35
2023-05-06T16:58:34.368Z,46.85
2023-05-06T17:01:01.803Z,47.19
2023-05-06T17:03:29.040Z,47.75
2023-05-06T17:05:56.867Z,48.97
2023-05-06T17:08:24.461Z,48.86
2023-05-06T17:10:54.108Z,48.68
2023-05-06T17:13:21.374Z,48.83
2023-05-06T17:15:48.483Z,49.13
2023-05-06T17:18:15.257Z,49.81
2023-05-06T17:20:54.387Z,49.89
2023-05-06T17:23:23.964Z,49.98
2023-05-06T17:25:50.839Z,50.75
2023-05-06T17:28:18.921Z,50.17
2023-05-06T17:30:46.251Z,50.20
2023-05-06T17:33:13.661Z,50.80
2023-05-06T17:35:40.555Z,51.68
2023-05-06T17:38:12.686Z,52.09
2023-05-06T17:40:39.454Z,52.64
2023-05-06T17:43:07.088Z,52.78
2023-05-06T17:45:34.881Z,53.47
2023-05-06T17:48:02.505Z,53.74
2023-05-06T17:50:29.599Z,53.15
2023-05-06T17:52:56.819Z,53.48
2023-05-06T17:55:23.972Z,54.33
2023-05-06T17:57:52.301Z,55.66
2023-05-06T18:00:19.514Z,55.91
2023-05-06T18:02:46.756Z,55.65
2023-05-06T18:05:14.000Z,55.53
2023-05-06T18:07:41.721Z,55.78
2023-05-06T18:10:09.147Z,56.63
2023-05-06T18:12:36.991Z,57.17
2023-05-06T18:15:05.583Z,57.97
2023-05-06T18:17:33.370Z,57.95
2023-05-06T18:20:00.336Z,58.46
2023-05-06T18:22:27.197Z,58.26
2023-05-06T18:24:54.703Z,58.33
2023-05-06T18:27:22.117Z,58.97
2023-05-06T18:29:50.296Z,59.36
2023-05-06T18:32:17.932Z,60.02
2023-05-06T18:34:45.362Z,60.38
2023-05-06T18:37:12.722Z,59.85
2023-05-06T18:39:41.250Z,59.50
2023-05-06T18:42:08.251Z,60.63
2023-05-06T18:44:35.637Z,61.24
2023-05-06T18:47:02.663Z,61.25
2023-05-06T18:49:30.503Z,62.14
2023-05-06T18:51:57.465Z,62.18
2023-05-06T18:54:25.155Z,62.60
2023-05-06T18:56:52.771Z,63.28
2023-05-06T18:59:20.847Z,63.41
2023-05-06T19:01:47.638Z,63.71
2023-05-06T19:04:15.010Z,64.01
2023-05-06T19:06:41.997Z,64.24
2023-05-06T19:09:08.964Z,64.83
2023-05-06T19:11:37.799Z,65.05
2023-05-06T19:14:04.783Z,65.19
2023-05-06T19:16:32.393Z,65.19
2023-05-06T19:18:59.416Z,65.20
2023-05-06T19:21:27.468Z,65.48
2023-05-06T19:23:59.168Z,65.77
2023-05-06T19:26:27.467Z,66.32
2023-05-06T19:28:54.702Z,66.94
2023-05-06T19:31:21.842Z,67.09
2023-05-06T19:33:48.944Z,67.29
2023-05-06T19:36:16.139Z,67.63
2023-05-06T19:38:43.152Z,68.14
2023-05-06T19:41:10.449Z,68.24
2023-05-06T19:43:42.459Z,68.54
2023-05-06T19:46:12.640Z,68.35
2023-05-06T19:48:39.743Z,68.74
2023-05-06T19:51:06.912Z,68.66
2023-05-06T19:53:34.038Z,68.86
2023-05-06T19:56:11.547Z,69.28
2023-05-06T19:58:39.625Z,69.36
2023-05-06T20:01:06.806Z,69.24
2023-05-06T20:03:33.921Z,69.55
2023-05-06T20:06:01.639Z,70.06
2023-05-06T20:08:28.785Z,70.29
2023-05-06T20:10:55.713Z,70.35
2023-05-06T20:13:23.180Z,70.44
2023-05-06T20:15:50.629Z,70.72
2023-05-06T20:18:17.609Z,70.81
2023-05-06T20:20:44.852Z,71.36
2023-05-06T20:23:11.662Z,71.65
2023-05-06T20:25:38.835Z,71.80
2023-05-06T20:28:06.348Z,72.08
2023-05-06T20:30:34.345Z,72.20
2023-05-06T20:33:01.414Z,72.68
2023-05-06T20:35:28.607Z,72.90
2023-05-06T20:37:56.100Z,73.30
2023-05-06T20:40:23.062Z,73.52
2023-05-06T20:42:50.505Z,73.88
2023-05-06T20:45:17.557Z,73.85
2023-05-06T20:47:44.475Z,74.00
2023-05-06T20:50:16.307Z,74.11
2023-05-06T20:52:45.923Z,74.41
2023-05-06T20:55:15.857Z,74.36
2023-05-06T20:57:43.454Z,74.20
2023-05-06T21:00:10.871Z,74.31
2023-05-06T21:02:41.246Z,74.01
2023-05-06T21:05:09.481Z,73.62
2023-05-06T21:07:36.663Z,73.35
2023-05-06T21:10:05.187Z,73.33
2023-05-06T21:12:32.877Z,73.39
2023-05-06T21:15:00.007Z,73.66
2023-05-06T21:17:26.879Z,74.08
2023-05-06T21:19:53.814Z,74.07
2023-05-06T21:22:22.096Z,74.03
2023-05-06T21:24:50.067Z,73.78
2023-05-06T21:27:17.232Z,73.85
2023-05-06T21:29:44.045Z,73.75
2023-05-06T21:32:11.422Z,73.46
2023-05-06T21:34:38.293Z,72.89
2023-05-06T21:37:06.369Z,72.80
2023-05-06T21:39:33.252Z,72.54
2023-05-06T21:42:00.235Z,72.42
2023-05-06T21:44:26.952Z,71.78
2023-05-06T21:46:54.148Z,71.42
2023-05-06T21:49:21.942Z,71.33
2023-05-06T21:51:48.825Z,71.40
2023-05-06T21:54:16.810Z,71.60
2023-05-06T21:56:44.120Z,71.58
2023-05-06T21:59:11.516Z,71.49
2023-05-06T22:01:38.426Z,70.92
2023-05-06T22:04:10.381Z,70.76
2023-05-06T22:06:37.234Z,71.08
2023-05-06T22:09:08.521Z,71.10
2023-05-06T22:11:37.126Z,71.00
2023-05-06T22:14:05.939Z,70.49
2023-05-06T22:16:35.151Z,70.56
2023-05-06T22:19:03.653Z,70.48
2023-05-06T22:21:34.171Z,70.59
2023-05-06T22:24:01.036Z,70.14
2023-05-06T22:26:28.130Z,70.28
2023-05-06T22:28:55.636Z,70.32
2023-05-06T22:31:24.013Z,70.06
2023-05-06T22:33:57.142Z,70.21
2023-05-06T22:36:28.524Z,69.93
2023-05-06T22:38:55.933Z,69.75
2023-05-06T22:41:23.450Z,69.49
2023-05-06T22:43:50.359Z,69.49
2023-05-06T22:46:17.705Z,69.92
2023-05-06T22:48:45.722Z,69.26
2023-05-06T22:51:15.409Z,69.42
2023-05-06T22:53:42.378Z,69.86
2023-05-06T22:56:09.150Z,69.53
2023-05-06T22:58:37.207Z,69.45
2023-05-06T23:01:04.219Z,69.52
2023-05-06T23:03:32.365Z,69.45
2023-05-06T23:05:59.543Z,69.53
2023-05-06T23:08:26.612Z,69.65
2023-05-06T23:10:53.489Z,69.31
2023-05-06T23:13:20.719Z,69.32
2023-05-06T23:15:47.933Z,69.25
2023-05-06T23:18:15.043Z,69.58
2023-05-06T23:20:41.893Z,69.75
2023-05-06T23:23:10.465Z,69.74
2023-05-06T23:25:37.612Z,70.21
2023-05-06T23:28:04.706Z,70.28
2023-05-06T23:30:32.084Z,70.43
2023-05-06T23:32:59.024Z,70.31
2023-05-06T23:35:26.277Z,70.31
2023-05-06T23:37:53.098Z,70.43
2023-05-06T23:40:20.288Z,70.63
2023-05-06T23:42:47.380Z,70.93
2023-05-06T23:45:14.395Z,70.98
2023-05-06T23:47:41.217Z,70.72
2023-05-06T23:50:08.613Z,70.71
2023-05-06T23:52:37.664Z,70.52
2023-05-06T23:55:05.195Z,70.60
2023-05-06T23:57:32.352Z,70.96
